Time;durP1;ratioP1;P1;durP2;ratioP2;P2;SDS_P1;SDS_P2;PMS_P1;PMS_P2;Temp;Humidity;BMP_temperature;BMP_pressure;BME280_temperature;BME280_humidity;BME280_pressure;Samples;Min_cycle;Max_cycle;Signal;HPM_P1;HPM_P2
2022/07/02 00:02:27;;;;;;;3.60;1.70;;;;;;;13.30;100.00;96827.47;4943656;28;20220;-77
2022/07/02 00:04:59;;;;;;;2.37;1.57;;;;;;;13.37;100.00;96823.59;4939597;28;20213;-78
2022/07/02 00:07:28;;;;;;;3.37;1.50;;;;;;;13.47;100.00;96818.41;4944571;28;20213;-78
2022/07/02 00:09:57;;;;;;;2.00;1.20;;;;;;;13.57;100.00;96815.09;4935530;28;20208;-78
2022/07/02 00:12:26;;;;;;;3.53;2.20;;;;;;;13.57;100.00;96817.81;4955562;28;20292;-79
2022/07/02 00:14:54;;;;;;;1.70;1.60;;;;;;;13.59;100.00;96819.22;4956003;28;20205;-78
2022/07/02 00:17:22;;;;;;;4.83;1.90;;;;;;;13.62;100.00;96816.00;4941604;28;20213;-78
2022/07/02 00:19:49;;;;;;;1.50;1.40;;;;;;;13.75;100.00;96811.41;4956954;28;20197;-78
2022/07/02 00:22:17;;;;;;;3.00;1.30;;;;;;;13.73;100.00;96819.78;4943518;28;20341;-77
2022/07/02 00:24:45;;;;;;;3.73;1.40;;;;;;;13.67;100.00;96806.34;4945648;28;20235;-78
2022/07/02 00:27:16;;;;;;;2.87;1.40;;;;;;;13.70;100.00;96812.09;4940970;28;20406;-78
2022/07/02 00:29:50;;;;;;;1.37;1.27;;;;;;;13.71;100.00;96811.03;4950583;28;20236;-78
2022/07/02 00:32:17;;;;;;;1.40;1.30;;;;;;;13.70;100.00;96801.25;4965793;28;20303;-79
2022/07/02 00:34:46;;;;;;;1.30;1.20;;;;;;;13.75;100.00;96804.09;4950596;28;20215;-77
2022/07/02 00:37:14;;;;;;;2.37;1.13;;;;;;;13.78;100.00;96803.59;4943658;28;20217;-79
2022/07/02 00:39:42;;;;;;;1.30;1.17;;;;;;;13.81;100.00;96805.00;4942816;28;20216;-79
2022/07/02 00:42:10;;;;;;;2.43;1.30;;;;;;;13.81;100.00;96799.59;4959848;28;20245;-79
2022/07/02 00:44:39;;;;;;;2.30;1.30;;;;;;;13.75;100.00;96790.53;4945793;28;20224;-78
2022/07/02 00:47:08;;;;;;;2.93;1.30;;;;;;;13.67;100.00;96795.50;4959636;28;20209;-78
2022/07/02 00:49:36;;;;;;;1.23;1.13;;;;;;;13.59;100.00;96794.81;4949569;28;20216;-79
2022/07/02 00:52:05;;;;;;;1.37;1.27;;;;;;;13.55;100.00;96788.19;4945791;28;20205;-78
2022/07/02 00:54:35;;;;;;;1.90;1.30;;;;;;;13.47;100.00;96780.41;4963910;28;20227;-78
2022/07/02 00:57:02;;;;;;;1.73;1.23;;;;;;;13.43;100.00;96787.41;4958598;28;20299;-78
2022/07/02 00:59:30;;;;;;;1.30;1.20;;;;;;;13.43;100.00;96786.56;4953711;28;20213;-77
2022/07/02 01:02:00;;;;;;;1.90;1.27;;;;;;;13.51;100.00;96792.47;4954095;28;20212;-78
2022/07/02 01:04:29;;;;;;;3.20;1.07;;;;;;;13.57;100.00;96787.94;4949455;28;20243;-78
2022/07/02 01:07:01;;;;;;;1.93;1.40;;;;;;;13.62;100.00;96791.59;4948409;28;20244;-78
2022/07/02 01:12:15;;;;;;;2.70;1.30;;;;;;;13.67;100.00;96785.47;4939315;28;20213;-79
2022/07/02 01:14:42;;;;;;;2.80;1.40;;;;;;;13.68;100.00;96787.13;4963897;28;20281;-78
2022/07/02 01:17:11;;;;;;;1.60;1.10;;;;;;;13.70;100.00;96778.72;4962091;28;20212;-78
2022/07/02 01:19:38;;;;;;;1.00;0.90;;;;;;;13.64;100.00;96778.63;4947496;28;20212;-78
2022/07/02 01:22:18;;;;;;;1.60;1.50;;;;;;;13.58;100.00;96778.75;4942314;28;20209;-78
2022/07/02 01:24:47;;;;;;;1.40;1.10;;;;;;;13.53;100.00;96776.75;4961840;28;20271;-78
2022/07/02 01:27:14;;;;;;;1.80;1.60;;;;;;;13.49;100.00;96772.88;4957279;28;20221;-78
2022/07/02 01:29:41;;;;;;;1.50;1.27;;;;;;;13.51;100.00;96781.59;4963758;28;20268;-78
2022/07/02 01:32:10;;;;;;;1.67;1.30;;;;;;;13.57;100.00;96783.34;4954980;28;20313;-78
2022/07/02 01:34:38;;;;;;;1.30;1.20;;;;;;;13.59;100.00;96783.94;4958652;28;20237;-79
2022/07/02 01:37:08;;;;;;;5.40;1.20;;;;;;;13.56;100.00;96789.84;4946396;28;20212;-79
2022/07/02 01:39:37;;;;;;;1.27;1.17;;;;;;;13.51;100.00;96787.03;4959941;28;20209;-79
2022/07/02 01:42:05;;;;;;;3.77;1.17;;;;;;;13.53;100.00;96789.47;4956517;28;20220;-78
2022/07/02 01:44:33;;;;;;;1.37;1.27;;;;;;;13.52;100.00;96788.69;4942410;28;20221;-77
2022/07/02 01:47:01;;;;;;;1.20;1.10;;;;;;;13.44;100.00;96786.31;4940407;28;20212;-79
2022/07/02 01:49:28;;;;;;;2.20;1.07;;;;;;;13.34;100.00;96780.69;4968559;28;20213;-77
2022/07/02 01:51:55;;;;;;;5.03;1.40;;;;;;;13.25;100.00;96773.97;4945743;28;20200;-78
2022/07/02 01:54:22;;;;;;;3.27;1.10;;;;;;;13.17;100.00;96775.16;4962720;28;20193;-78
2022/07/02 01:56:50;;;;;;;2.40;1.43;;;;;;;13.14;100.00;96785.63;4952147;28;20230;-78
2022/07/02 01:59:18;;;;;;;2.17;1.30;;;;;;;13.14;100.00;96782.91;4959595;28;20235;-78
2022/07/02 02:01:46;;;;;;;1.17;1.07;;;;;;;13.11;100.00;96778.75;4966812;28;20343;-78
2022/07/02 02:04:13;;;;;;;1.30;1.20;;;;;;;13.07;100.00;96776.75;4956436;28;20228;-78
2022/07/02 02:06:40;;;;;;;1.40;1.30;;;;;;;13.05;100.00;96778.88;4949382;28;20215;-79
2022/07/02 02:09:08;;;;;;;1.93;1.60;;;;;;;13.02;100.00;96782.88;4948808;28;20209;-78
2022/07/02 02:11:35;;;;;;;2.93;1.67;;;;;;;12.98;100.00;96780.88;4965099;28;20212;-78
2022/07/02 02:14:03;;;;;;;7.00;2.37;;;;;;;12.93;100.00;96784.28;4949858;28;20207;-78
2022/07/02 02:16:32;;;;;;;1.90;1.33;;;;;;;12.99;100.00;96782.53;4951623;28;20225;-78
2022/07/02 02:19:00;;;;;;;3.03;1.50;;;;;;;13.04;100.00;96782.63;4965621;28;20201;-78
2022/07/02 02:21:30;;;;;;;2.13;1.10;;;;;;;13.00;100.00;96795.03;4966947;28;20260;-78
2022/07/02 02:23:58;;;;;;;2.27;1.30;;;;;;;13.05;100.00;96782.41;4969392;28;20308;-78
2022/07/02 02:26:26;;;;;;;2.20;1.13;;;;;;;13.05;100.00;96787.00;4961938;28;20217;-78
2022/07/02 02:28:54;;;;;;;2.80;1.50;;;;;;;13.06;100.00;96800.31;4951642;28;20217;-78
2022/07/02 02:31:23;;;;;;;4.10;1.43;;;;;;;13.06;100.00;96792.19;4975073;28;20223;-79
2022/07/02 02:33:50;;;;;;;3.80;1.20;;;;;;;13.14;100.00;96788.34;4952572;28;20201;-77
2022/07/02 02:36:18;;;;;;;1.70;1.20;;;;;;;13.08;100.00;96787.38;4946701;28;20217;-77
2022/07/02 02:38:46;;;;;;;3.27;1.30;;;;;;;13.05;100.00;96790.53;4964819;28;20297;-77
2022/07/02 02:41:14;;;;;;;1.30;1.20;;;;;;;13.10;100.00;96795.28;4964959;28;20218;-77
2022/07/02 02:43:42;;;;;;;2.53;1.30;;;;;;;13.13;100.00;96798.34;4953784;28;20213;-77
2022/07/02 02:46:10;;;;;;;1.63;1.43;;;;;;;13.16;100.00;96797.91;4949257;28;20474;-77
2022/07/02 02:48:39;;;;;;;1.30;1.20;;;;;;;13.10;100.00;96800.69;4969023;28;20216;-77
2022/07/02 02:51:07;;;;;;;5.53;1.60;;;;;;;13.09;100.00;96799.03;4954551;28;20212;-77
2022/07/02 02:53:34;;;;;;;1.67;1.50;;;;;;;13.08;100.00;96786.53;4965861;28;20205;-77
2022/07/02 02:56:03;;;;;;;1.40;1.30;;;;;;;13.10;100.00;96795.28;4964878;28;20252;-77
2022/07/02 02:58:30;;;;;;;3.03;1.20;;;;;;;13.05;100.00;96793.25;4964703;28;20250;-77
2022/07/02 03:00:57;;;;;;;3.67;1.47;;;;;;;13.03;100.00;96798.06;4967226;28;20201;-77
2022/07/02 03:03:24;;;;;;;1.67;1.40;;;;;;;13.04;100.00;96793.47;4960617;28;20220;-76
2022/07/02 03:05:53;;;;;;;1.57;1.20;;;;;;;13.04;100.00;96798.91;4956720;28;20229;-77
2022/07/02 03:08:21;;;;;;;1.77;1.63;;;;;;;12.97;100.00;96792.78;4965701;28;20216;-77
2022/07/02 03:10:48;;;;;;;1.33;1.13;;;;;;;12.95;100.00;96803.84;4968082;28;20216;-77
2022/07/02 03:13:15;;;;;;;3.33;1.10;;;;;;;12.94;100.00;96801.38;4949013;28;20272;-77
2022/07/02 03:15:42;;;;;;;3.13;1.20;;;;;;;12.81;100.00;96797.00;4947646;28;20251;-77
2022/07/02 03:18:09;;;;;;;2.30;1.50;;;;;;;12.74;100.00;96810.66;4951129;28;20243;-77
2022/07/02 03:20:36;;;;;;;1.93;1.40;;;;;;;12.75;100.00;96804.19;4948342;28;20223;-77
2022/07/02 03:23:05;;;;;;;1.93;1.23;;;;;;;12.71;100.00;96803.00;4970020;28;20197;-77
2022/07/02 03:25:32;;;;;;;2.53;1.50;;;;;;;12.67;100.00;96799.09;4965588;28;20212;-77
2022/07/02 03:27:59;;;;;;;4.43;1.37;;;;;;;12.64;100.00;96802.28;4947691;28;20220;-78
2022/07/02 03:30:26;;;;;;;1.67;1.40;;;;;;;12.60;100.00;96800.25;4971756;28;20204;-76
2022/07/02 03:32:53;;;;;;;3.60;1.30;;;;;;;12.65;100.00;96805.81;4953567;28;20300;-76
2022/07/02 03:35:20;;;;;;;4.13;1.57;;;;;;;12.61;100.00;96802.72;4971071;28;20224;-77
2022/07/02 03:37:47;;;;;;;1.60;1.40;;;;;;;12.55;100.00;96809.06;4954443;28;20228;-77
2022/07/02 03:40:16;;;;;;;1.40;1.30;;;;;;;12.54;100.00;96815.53;4960173;28;20209;-77
2022/07/02 03:42:43;;;;;;;2.73;1.53;;;;;;;12.49;100.00;96805.41;4963956;28;20228;-77
2022/07/02 03:45:10;;;;;;;1.93;1.30;;;;;;;12.56;100.00;96816.16;4957538;28;20247;-76
2022/07/02 03:47:37;;;;;;;1.80;1.30;;;;;;;12.57;100.00;96806.97;4946991;28;20213;-77
2022/07/02 03:50:05;;;;;;;5.47;1.30;;;;;;;12.62;100.00;96817.09;4961035;28;20209;-77
2022/07/02 03:52:33;;;;;;;1.93;1.20;;;;;;;12.63;100.00;96808.75;4963552;28;20204;-77
2022/07/02 03:55:00;;;;;;;1.53;1.40;;;;;;;12.70;100.00;96814.88;4966438;28;20224;-77
2022/07/02 03:57:28;;;;;;;2.27;1.23;;;;;;;12.69;100.00;96807.81;4963719;28;20248;-76
2022/07/02 03:59:55;;;;;;;2.77;1.30;;;;;;;12.69;100.00;96810.50;4945885;28;20212;-77
2022/07/02 04:02:23;;;;;;;3.17;1.47;;;;;;;12.71;100.00;96808.41;4957369;28;20243;-77
2022/07/02 04:04:50;;;;;;;2.13;1.10;;;;;;;12.73;100.00;96805.47;4964781;28;20224;-77
2022/07/02 04:07:17;;;;;;;4.53;1.50;;;;;;;12.76;100.00;96805.81;4948279;28;20205;-77
2022/07/02 04:09:44;;;;;;;1.30;1.17;;;;;;;12.82;100.00;96812.19;4951458;28;20225;-76
2022/07/02 04:12:12;;;;;;;3.10;1.50;;;;;;;12.79;100.00;96805.34;4970286;28;20216;-77
2022/07/02 04:14:40;;;;;;;4.27;1.90;;;;;;;12.78;100.00;96809.13;4950051;28;20243;-77
2022/07/02 04:17:08;;;;;;;2.13;1.37;;;;;;;12.80;100.00;96814.31;4952593;28;20244;-77
2022/07/02 04:19:35;;;;;;;2.33;1.57;;;;;;;12.80;100.00;96814.31;4951832;28;20208;-77
2022/07/02 04:22:02;;;;;;;2.80;1.80;;;;;;;12.81;100.00;96822.22;4955414;28;20209;-77
2022/07/02 04:24:29;;;;;;;3.23;1.57;;;;;;;12.83;100.00;96819.28;4965963;28;20229;-77
2022/07/02 04:26:56;;;;;;;1.50;1.40;;;;;;;12.86;100.00;96822.34;4964823;28;20221;-76
2022/07/02 04:29:24;;;;;;;5.97;1.67;;;;;;;12.83;100.00;96822.00;4951658;28;20233;-77
2022/07/02 04:31:52;;;;;;;1.73;1.50;;;;;;;12.81;100.00;96814.09;4962640;28;20208;-76
2022/07/02 04:34:19;;;;;;;2.00;1.13;;;;;;;12.84;100.00;96819.03;4950778;28;20304;-77
2022/07/02 04:36:46;;;;;;;3.57;1.50;;;;;;;12.82;100.00;96810.31;4963927;28;20205;-77
2022/07/02 04:39:13;;;;;;;2.30;1.23;;;;;;;12.86;100.00;96816.91;4945799;28;20986;-77
2022/07/02 04:41:41;;;;;;;3.83;1.33;;;;;;;12.87;100.00;96813.16;4968243;28;20209;-76
2022/07/02 04:44:08;;;;;;;1.40;1.20;;;;;;;12.91;100.00;96816.22;4945094;28;20232;-77
2022/07/02 04:46:35;;;;;;;2.33;1.33;;;;;;;12.95;100.00;96819.28;4942314;28;20233;-77
2022/07/02 04:49:04;;;;;;;1.70;1.60;;;;;;;12.98;100.00;96829.66;4948255;28;20272;-77
2022/07/02 04:51:31;;;;;;;1.60;1.50;;;;;;;13.02;100.00;96825.41;4948156;28;20208;-76
2022/07/02 04:53:58;;;;;;;1.97;1.60;;;;;;;13.07;100.00;96822.84;4949998;28;20264;-77
2022/07/02 04:56:27;;;;;;;1.80;1.40;;;;;;;13.08;100.00;96819.91;4938337;28;20232;-76
2022/07/02 04:58:54;;;;;;;3.90;2.57;;;;;;;13.09;100.00;96815.31;4927814;28;20230;-77
2022/07/02 05:01:23;;;;;;;2.13;1.70;;;;;;;13.11;100.00;96827.56;4921966;28;20210;-77
2022/07/02 05:03:51;;;;;;;1.60;1.20;;;;;;;13.08;100.00;96825.31;4946130;28;20238;-77
2022/07/02 05:06:19;;;;;;;5.70;1.23;;;;;;;13.02;100.00;96828.13;4926252;29;20229;-76
2022/07/02 05:08:46;;;;;;;1.33;1.20;;;;;;;13.04;100.00;96817.88;4926295;28;20218;-76
2022/07/02 05:11:15;;;;;;;2.90;1.40;;;;;;;13.03;100.00;96818.94;4926742;29;20213;-77
2022/07/02 05:13:43;;;;;;;2.43;1.53;;;;;;;13.02;100.00;96822.69;4944341;28;20233;-77
2022/07/02 05:16:10;;;;;;;1.40;1.30;;;;;;;12.96;100.00;96816.34;4946293;28;20339;-77
2022/07/02 05:18:37;;;;;;;1.43;1.33;;;;;;;12.94;100.00;96809.50;4929412;29;20248;-77
2022/07/02 05:21:04;;;;;;;1.80;1.50;;;;;;;12.95;100.00;96811.16;4930978;29;20209;-76
2022/07/02 05:23:33;;;;;;;3.03;1.70;;;;;;;12.96;100.00;96819.06;4926717;28;20224;-77
2022/07/02 05:26:01;;;;;;;1.90;1.73;;;;;;;12.87;100.00;96820.44;4923583;29;20229;-77
2022/07/02 05:28:29;;;;;;;2.60;1.83;;;;;;;12.82;100.00;96804.91;4937218;28;20214;-77
2022/07/02 05:30:56;;;;;;;3.00;1.70;;;;;;;12.77;100.00;96801.22;4926842;29;20206;-77
2022/07/02 05:33:23;;;;;;;3.50;1.60;;;;;;;12.76;100.00;96810.44;4944245;29;20221;-76
2022/07/02 05:35:50;;;;;;;3.87;1.63;;;;;;;12.65;100.00;96798.50;4942107;29;20210;-76
2022/07/02 05:38:17;;;;;;;2.40;1.60;;;;;;;12.64;100.00;96804.16;4941161;28;20202;-76
2022/07/02 05:40:46;;;;;;;2.07;1.60;;;;;;;12.59;100.00;96809.44;4939947;28;20201;-77
2022/07/02 05:43:13;;;;;;;2.40;1.60;;;;;;;12.49;100.00;96800.00;4946283;28;20368;-75
2022/07/02 05:45:40;;;;;;;2.00;1.70;;;;;;;12.49;100.00;96812.72;4946263;28;20230;-75
2022/07/02 05:48:07;;;;;;;2.20;1.70;;;;;;;12.53;100.00;96811.19;4935357;28;20585;-74
2022/07/02 05:50:34;;;;;;;4.93;1.60;;;;;;;12.60;100.00;96811.91;4944648;28;20220;-75
2022/07/02 05:53:01;;;;;;;2.60;1.63;;;;;;;12.68;100.00;96806.16;4940901;28;20216;-75
2022/07/02 05:55:28;;;;;;;1.50;1.40;;;;;;;12.79;100.00;96807.25;4929049;29;20235;-74
2022/07/02 05:57:57;;;;;;;1.60;1.50;;;;;;;12.88;100.00;96812.09;4948588;28;20222;-74
2022/07/02 06:00:24;;;;;;;1.57;1.47;;;;;;;12.91;100.00;96804.56;4945703;28;20219;-74
2022/07/02 06:02:51;;;;;;;2.90;1.60;;;;;;;12.84;100.00;96801.97;4934758;28;20219;-75
2022/07/02 06:08:03;;;;;;;2.83;1.60;;;;;;;12.79;100.00;96799.94;4964315;28;20267;-75
2022/07/02 06:10:30;;;;;;;5.07;1.90;;;;;;;12.75;100.00;96796.06;4954068;28;20263;-74
2022/07/02 06:12:59;;;;;;;5.10;1.70;;;;;;;12.74;100.00;96790.88;4962642;28;20216;-75
2022/07/02 06:15:26;;;;;;;5.30;1.60;;;;;;;12.79;100.00;96786.38;4960791;28;20225;-74
2022/07/02 06:17:53;;;;;;;3.53;1.80;;;;;;;12.79;100.00;96783.69;4940957;28;20210;-74
2022/07/02 06:20:20;;;;;;;3.40;1.40;;;;;;;12.78;100.00;96782.03;4956706;28;20224;-74
2022/07/02 06:22:47;;;;;;;5.63;1.70;;;;;;;12.83;100.00;96784.88;4940455;28;20212;-74
2022/07/02 06:25:14;;;;;;;4.47;2.80;;;;;;;12.89;100.00;96773.09;4961337;28;20228;-75
2022/07/02 06:27:41;;;;;;;3.77;2.43;;;;;;;12.96;100.00;96774.84;4951687;28;20215;-75
2022/07/02 06:30:11;;;;;;;2.37;1.50;;;;;;;13.03;100.00;96772.84;4951024;28;20205;-75
2022/07/02 06:32:39;;;;;;;3.53;2.10;;;;;;;13.09;100.00;96764.63;4946090;28;20221;-74
2022/07/02 06:35:06;;;;;;;1.63;1.47;;;;;;;13.13;100.00;96763.09;4961026;28;20192;-75
2022/07/02 06:37:33;;;;;;;2.10;1.67;;;;;;;13.15;100.00;96754.75;4962445;28;20220;-75
2022/07/02 06:40:00;;;;;;;2.73;1.77;;;;;;;13.20;100.00;96760.28;4961663;28;20208;-75
2022/07/02 06:42:29;;;;;;;2.13;1.67;;;;;;;13.20;100.00;96765.69;4945421;28;20209;-75
2022/07/02 06:44:59;;;;;;;2.23;1.77;;;;;;;13.21;100.00;96759.22;4958934;28;20302;-75
2022/07/02 06:47:29;;;;;;;4.03;1.87;;;;;;;13.20;100.00;96758.38;4948953;28;20227;-74
2022/07/02 06:49:58;;;;;;;3.17;1.77;;;;;;;13.19;100.00;96761.31;4965835;28;20237;-74
2022/07/02 06:52:25;;;;;;;2.27;1.90;;;;;;;13.12;100.00;96755.16;4959823;28;20227;-75
2022/07/02 06:54:53;;;;;;;3.60;1.80;;;;;;;13.05;100.00;96754.47;4963962;28;20205;-75
2022/07/02 06:57:20;;;;;;;2.13;1.50;;;;;;;12.95;100.00;96759.66;4968182;28;20244;-75
2022/07/02 06:59:47;;;;;;;5.83;1.90;;;;;;;12.94;100.00;96755.28;4965416;28;20255;-75
2022/07/02 07:02:14;;;;;;;1.97;1.73;;;;;;;12.92;100.00;96749.28;4968338;28;20220;-75
2022/07/02 07:04:43;;;;;;;2.83;1.90;;;;;;;12.98;100.00;96746.47;4959847;28;20209;-74
2022/07/02 07:07:10;;;;;;;3.87;2.17;;;;;;;13.07;100.00;96752.34;4941608;28;20228;-75
2022/07/02 07:09:38;;;;;;;2.83;1.70;;;;;;;13.14;100.00;96745.78;4948489;28;20205;-75
2022/07/02 07:12:06;;;;;;;2.20;1.60;;;;;;;13.22;100.00;96741.88;4959357;28;20267;-75
2022/07/02 07:14:34;;;;;;;2.47;1.80;;;;;;;13.30;100.00;96741.53;4945705;28;20303;-75
2022/07/02 07:17:02;;;;;;;2.40;1.73;;;;;;;13.41;100.00;96743.41;4948539;28;20205;-75
2022/07/02 07:19:30;;;;;;;3.00;1.60;;;;;;;13.67;100.00;96741.22;4946241;28;20209;-74
2022/07/02 07:21:58;;;;;;;2.20;1.23;;;;;;;13.94;100.00;96736.88;4947228;28;20216;-77
2022/07/02 07:24:25;;;;;;;2.77;1.60;;;;;;;14.40;100.00;96719.56;4948232;28;20201;-77
2022/07/02 07:26:53;;;;;;;3.83;1.40;;;;;;;15.05;100.00;96719.00;4963693;28;20232;-77
2022/07/02 07:29:20;;;;;;;1.40;1.30;;;;;;;15.48;100.00;96729.94;4939130;28;20223;-77
2022/07/02 07:31:47;;;;;;;1.40;1.30;;;;;;;15.88;100.00;96729.66;4949229;28;20340;-77
2022/07/02 07:34:14;;;;;;;2.60;1.47;;;;;;;16.33;100.00;96728.53;4965151;28;20220;-77
2022/07/02 07:36:41;;;;;;;1.93;1.20;;;;;;;16.65;100.00;96725.84;4956861;28;20233;-78
2022/07/02 07:39:11;;;;;;;1.43;1.33;;;;;;;17.03;100.00;96727.50;4955911;28;20287;-77
2022/07/02 07:41:39;;;;;;;1.50;1.40;;;;;;;17.35;100.00;96731.00;4955843;28;20202;-77
2022/07/02 07:44:06;;;;;;;2.00;1.20;;;;;;;17.61;100.00;96731.97;4968230;28;20209;-77
2022/07/02 07:46:33;;;;;;;2.60;1.40;;;;;;;17.73;100.00;96718.94;4962878;28;20232;-77
2022/07/02 07:49:00;;;;;;;3.17;1.20;;;;;;;17.77;100.00;96717.34;4941583;28;20206;-78
2022/07/02 07:51:28;;;;;;;2.53;1.30;;;;;;;18.12;100.00;96713.88;4935668;28;20216;-78
2022/07/02 07:53:55;;;;;;;2.23;1.50;;;;;;;18.39;100.00;96713.69;4948269;28;20204;-77
2022/07/02 07:56:24;;;;;;;3.73;1.97;;;;;;;18.61;100.00;96698.97;4967854;28;20235;-77
2022/07/02 07:58:50;;;;;;;1.77;1.67;;;;;;;18.79;98.75;96698.44;4960756;28;20240;-78
2022/07/02 08:01:18;;;;;;;2.67;1.50;;;;;;;18.95;97.52;96700.06;4966180;28;20433;-78
2022/07/02 08:03:44;;;;;;;3.58;1.60;;;;;;;19.09;96.20;96711.28;4958612;28;20216;-78
2022/07/02 08:06:12;;;;;;;2.70;1.40;;;;;;;19.22;95.28;96708.00;4948076;28;20300;-78
2022/07/02 08:08:39;;;;;;;3.72;1.30;;;;;;;19.42;95.82;96701.63;4966373;28;20201;-78
2022/07/02 08:11:07;;;;;;;3.72;1.83;;;;;;;19.54;95.53;96699.44;4949167;28;20268;-78
2022/07/02 08:13:35;;;;;;;2.22;1.70;;;;;;;19.57;94.99;96707.91;4957828;28;20221;-78
2022/07/02 08:16:03;;;;;;;3.95;2.15;;;;;;;19.36;94.35;96698.09;4944660;28;20204;-78
2022/07/02 08:18:32;;;;;;;2.47;1.50;;;;;;;19.55;93.61;96701.09;4949284;28;20298;-78
2022/07/02 08:20:59;;;;;;;1.73;1.42;;;;;;;19.65;92.66;96701.84;4948505;28;20202;-78
2022/07/02 08:23:26;;;;;;;2.25;1.40;;;;;;;19.78;90.16;96702.38;4961461;28;20209;-78
2022/07/02 08:25:56;;;;;;;1.88;1.55;;;;;;;19.96;90.27;96699.00;4940806;28;20228;-78
2022/07/02 08:28:24;;;;;;;3.45;2.00;;;;;;;20.14;88.57;96698.38;4950389;28;20216;-78
2022/07/02 08:30:52;;;;;;;1.75;1.60;;;;;;;20.35;87.44;96704.56;4960489;28;20201;-78
2022/07/02 08:33:20;;;;;;;5.07;1.52;;;;;;;20.42;85.95;96685.06;4962942;28;20245;-78
2022/07/02 08:35:47;;;;;;;1.40;1.30;;;;;;;20.52;84.40;96693.22;4948936;28;20207;-78
2022/07/02 08:38:14;;;;;;;2.65;1.42;;;;;;;20.53;85.35;96684.72;4948721;28;20209;-78
2022/07/02 08:40:43;;;;;;;1.90;1.50;;;;;;;20.60;84.79;96687.13;4958544;28;20216;-78
2022/07/02 08:43:11;;;;;;;2.10;1.42;;;;;;;20.74;86.24;96679.91;4950806;28;20292;-77
2022/07/02 08:45:40;;;;;;;1.98;1.30;;;;;;;20.72;83.49;96669.19;4945290;28;20229;-79
2022/07/02 08:48:10;;;;;;;1.48;1.30;;;;;;;20.80;84.18;96672.44;4940059;28;20232;-79
2022/07/02 08:50:38;;;;;;;1.52;1.40;;;;;;;20.95;83.20;96666.78;4950923;28;20294;-79
2022/07/02 08:53:08;;;;;;;4.65;1.60;;;;;;;21.03;81.18;96667.00;4948456;28;20209;-78
2022/07/02 08:55:36;;;;;;;3.03;1.50;;;;;;;20.94;81.48;96665.97;4949745;28;20225;-79
2022/07/02 08:58:05;;;;;;;1.70;1.50;;;;;;;20.80;79.39;96662.28;4956711;28;20245;-78
2022/07/02 09:00:32;;;;;;;1.75;1.30;;;;;;;20.82;79.59;96668.28;4951988;28;20212;-78
2022/07/02 09:03:00;;;;;;;2.63;1.80;;;;;;;20.90;81.94;96664.94;4942577;28;20514;-79
2022/07/02 09:05:30;;;;;;;2.88;1.45;;;;;;;20.97;80.29;96659.09;4945490;28;20227;-79
2022/07/02 09:07:58;;;;;;;1.40;1.30;;;;;;;20.93;79.32;96658.84;4965320;28;20197;-78
2022/07/02 09:10:27;;;;;;;2.22;1.70;;;;;;;20.73;81.50;96648.88;4958912;28;20219;-79
2022/07/02 09:12:56;;;;;;;2.35;1.30;;;;;;;21.07;80.71;96659.84;4947080;28;20213;-79
2022/07/02 09:15:23;;;;;;;1.40;1.30;;;;;;;21.37;79.04;96666.13;4950229;28;20205;-79
2022/07/02 09:17:51;;;;;;;1.30;1.20;;;;;;;21.45;77.41;96665.50;4942679;29;20205;-79
2022/07/02 09:20:18;;;;;;;1.35;1.20;;;;;;;21.53;75.74;96668.41;4944295;28;20205;-79
2022/07/02 09:22:49;;;;;;;1.30;1.20;;;;;;;21.50;76.13;96665.47;4948918;28;20296;-79
2022/07/02 09:25:19;;;;;;;1.40;1.30;;;;;;;21.68;76.01;96661.13;4946744;28;20212;-79
2022/07/02 09:27:47;;;;;;;1.40;1.27;;;;;;;21.87;74.18;96661.97;4962872;28;20368;-78
2022/07/02 09:30:18;;;;;;;1.52;1.23;;;;;;;21.87;74.05;96662.78;4951950;28;20212;-79
2022/07/02 09:32:46;;;;;;;1.17;1.10;;;;;;;21.81;71.95;96672.22;4960137;28;20204;-79
2022/07/02 09:35:19;;;;;;;1.52;1.20;;;;;;;21.79;74.61;96663.44;4961318;28;20224;-79
2022/07/02 09:37:49;;;;;;;1.30;1.20;;;;;;;21.78;74.60;96656.31;4953908;28;20217;-79
2022/07/02 09:40:17;;;;;;;1.88;1.23;;;;;;;21.92;76.28;96655.59;4943049;28;20216;-79
2022/07/02 09:42:47;;;;;;;3.22;1.48;;;;;;;21.94;74.75;96656.13;4954607;28;20220;-79
2022/07/02 09:45:16;;;;;;;1.55;1.10;;;;;;;22.02;74.31;96661.81;4958919;28;20586;-79
2022/07/02 09:47:48;;;;;;;3.00;1.40;;;;;;;21.99;73.08;96656.06;4959227;28;20229;-79
2022/07/02 09:50:17;;;;;;;2.33;1.45;;;;;;;22.14;72.64;96653.94;4943111;28;20212;-79
2022/07/02 09:52:50;;;;;;;1.30;1.20;;;;;;;22.26;71.36;96668.06;4947012;28;20220;-79
2022/07/02 09:55:25;;;;;;;1.70;1.60;;;;;;;22.32;72.12;96662.50;4942441;28;20216;-81
2022/07/02 09:57:54;;;;;;;2.60;1.40;;;;;;;22.43;72.50;96664.81;4958526;28;20279;-79
2022/07/02 10:00:22;;;;;;;1.98;1.40;;;;;;;22.39;72.86;96662.94;4963220;28;20204;-79
2022/07/02 10:02:54;;;;;;;1.42;1.30;;;;;;;22.53;72.60;96664.66;4946207;28;20212;-79
2022/07/02 10:05:26;;;;;;;1.88;1.20;;;;;;;22.53;72.38;96666.59;4951635;28;20274;-79
2022/07/02 10:07:56;;;;;;;1.38;1.27;;;;;;;22.52;72.81;96659.44;4939675;28;20237;-79
2022/07/02 10:10:31;;;;;;;1.77;1.60;;;;;;;22.58;72.66;96663.75;4937435;28;20211;-79
2022/07/02 10:12:59;;;;;;;1.85;1.60;;;;;;;22.66;70.17;96663.06;4945376;28;20236;-79
2022/07/02 10:15:31;;;;;;;1.27;1.17;;;;;;;22.73;72.43;96662.66;4960578;28;20201;-79
2022/07/02 10:18:01;;;;;;;1.45;1.30;;;;;;;22.80;73.23;96661.19;4948691;28;20201;-79
2022/07/02 10:20:30;;;;;;;1.20;1.10;;;;;;;22.85;74.77;96660.31;4948434;28;20209;-79
2022/07/02 10:23:00;;;;;;;4.90;1.58;;;;;;;22.85;74.25;96655.63;4939597;28;20190;-79
2022/07/02 10:25:27;;;;;;;2.47;1.38;;;;;;;22.93;72.02;96656.88;4944828;28;20219;-79
2022/07/02 10:27:55;;;;;;;3.15;2.20;;;;;;;22.96;74.04;96648.00;4950429;28;20233;-80
2022/07/02 10:30:23;;;;;;;1.38;1.27;;;;;;;23.07;72.79;96643.94;4945594;28;20209;-79
2022/07/02 10:32:59;;;;;;;2.40;1.20;;;;;;;23.15;72.52;96648.75;4967575;28;20219;-80
2022/07/02 10:35:26;;;;;;;1.17;1.10;;;;;;;23.21;69.98;96650.31;4960151;28;20266;-79
2022/07/02 10:37:58;;;;;;;1.88;1.40;;;;;;;23.24;71.27;96657.94;4950609;28;20205;-80
2022/07/02 10:40:26;;;;;;;2.10;1.90;;;;;;;23.38;71.61;96653.31;4943762;28;20212;-79
2022/07/02 10:42:57;;;;;;;2.10;1.90;;;;;;;23.48;68.78;96643.22;4967235;28;20382;-79
2022/07/02 10:45:25;;;;;;;1.65;1.20;;;;;;;23.50;71.78;96635.44;4945445;28;20218;-79
2022/07/02 10:47:59;;;;;;;2.45;1.20;;;;;;;23.37;72.21;96640.63;4948370;28;20228;-79
2022/07/02 10:50:38;;;;;;;1.55;1.42;;;;;;;23.56;72.96;96635.03;4947599;28;20209;-80
2022/07/02 10:53:08;;;;;;;1.38;1.20;;;;;;;23.63;72.36;96627.19;4939095;28;20213;-80
2022/07/02 10:55:38;;;;;;;1.33;1.08;;;;;;;23.66;72.31;96628.50;4967750;28;20260;-79
2022/07/02 10:58:06;;;;;;;3.42;1.48;;;;;;;23.62;71.71;96630.25;4941000;28;20247;-79
2022/07/02 11:00:36;;;;;;;1.48;1.20;;;;;;;23.52;71.34;96627.69;4947860;28;20219;-80
2022/07/02 11:03:15;;;;;;;2.03;1.55;;;;;;;23.68;72.12;96620.75;4942558;28;20213;-79
2022/07/02 11:06:00;;;;;;;1.42;1.33;;;;;;;23.88;70.06;96611.25;4948019;28;20213;-80
2022/07/02 11:08:48;;;;;;;1.83;1.38;;;;;;;23.97;70.02;96612.16;4942209;28;20264;-79
2022/07/02 11:11:21;;;;;;;1.35;1.20;;;;;;;24.05;68.82;96620.50;4966658;28;20220;-79
2022/07/02 11:13:50;;;;;;;1.80;1.40;;;;;;;24.13;70.80;96607.91;4946908;28;20217;-79
2022/07/02 11:16:20;;;;;;;2.30;1.38;;;;;;;24.14;70.45;96615.06;4948612;28;20275;-79
2022/07/02 11:18:48;;;;;;;3.00;1.30;;;;;;;24.21;69.68;96612.72;4953835;28;20204;-79
2022/07/02 11:21:15;;;;;;;2.40;1.20;;;;;;;24.28;70.04;96609.53;4960325;28;20216;-79
2022/07/02 11:23:43;;;;;;;1.55;1.30;;;;;;;24.27;69.23;96607.91;4946118;28;20202;-79
2022/07/02 11:26:10;;;;;;;1.92;1.40;;;;;;;24.33;67.88;96606.69;4947672;28;20212;-79
2022/07/02 11:28:39;;;;;;;1.70;1.48;;;;;;;24.38;69.49;96609.31;4949650;28;20217;-79
2022/07/02 11:31:06;;;;;;;2.47;1.65;;;;;;;24.51;68.81;96616.72;4962549;28;20263;-79
2022/07/02 11:33:33;;;;;;;3.60;1.40;;;;;;;24.58;68.56;96608.00;4948339;28;20206;-80
2022/07/02 11:36:00;;;;;;;1.50;1.40;;;;;;;24.82;69.56;96601.03;4947416;28;20289;-79
2022/07/02 11:38:27;;;;;;;1.35;1.25;;;;;;;24.87;66.36;96600.88;4946314;28;20219;-80